Time;durP1;ratioP1;P1;durP2;ratioP2;P2;SDS_P1;SDS_P2;PMS_P1;PMS_P2;Temp;Humidity;BMP_temperature;BMP_pressure;BME280_temperature;BME280_humidity;BME280_pressure;Samples;Min_cycle;Max_cycle;Signal;HPM_P1;HPM_P2
2023/10/01 00:00:12;;;;;;;12.70;7.30;;;16.90;85.00;;;;;;4977350;28;20031;-78
2023/10/01 00:02:40;;;;;;;12.73;7.32;;;16.80;84.90;;;;;;4977318;28;20046;-78
2023/10/01 00:05:06;;;;;;;12.80;7.10;;;16.80;84.90;;;;;;4960203;28;20089;-78
2023/10/01 00:07:42;;;;;;;12.27;7.40;;;16.70;84.90;;;;;;4977057;28;20184;-78
2023/10/01 00:10:10;;;;;;;12.10;7.30;;;16.70;84.90;;;;;;4976829;28;20487;-78
2023/10/01 00:12:41;;;;;;;17.30;8.10;;;16.70;84.90;;;;;;4976695;28;20411;-78
2023/10/01 00:15:14;;;;;;;9.85;6.25;;;16.60;85.00;;;;;;4976920;28;20110;-78
2023/10/01 00:17:41;;;;;;;12.73;7.28;;;16.60;85.10;;;;;;4977013;28;20035;-79
2023/10/01 00:20:20;;;;;;;13.40;7.45;;;16.50;85.10;;;;;;4976403;28;20051;-79
2023/10/01 00:22:49;;;;;;;11.50;6.57;;;16.50;85.20;;;;;;4976313;28;20042;-78
2023/10/01 00:25:16;;;;;;;11.20;7.10;;;16.50;85.30;;;;;;4975921;28;20093;-79
2023/10/01 00:27:42;;;;;;;11.93;6.68;;;16.40;85.40;;;;;;4974842;28;20470;-79
2023/10/01 00:30:09;;;;;;;11.55;7.15;;;16.50;85.40;;;;;;4976343;28;20069;-78
2023/10/01 00:32:36;;;;;;;11.65;6.95;;;16.50;85.50;;;;;;4974784;28;20027;-78
2023/10/01 00:35:06;;;;;;;11.80;7.65;;;16.50;85.60;;;;;;4975442;28;20110;-78
2023/10/01 00:37:35;;;;;;;11.18;6.72;;;16.50;85.80;;;;;;4976107;28;20042;-78
2023/10/01 00:40:02;;;;;;;11.63;6.65;;;16.50;85.60;;;;;;4976725;28;20046;-78
2023/10/01 00:42:28;;;;;;;14.00;7.45;;;16.50;85.70;;;;;;4960843;28;20042;-78
2023/10/01 00:44:55;;;;;;;12.70;7.05;;;16.50;85.80;;;;;;4975370;28;20046;-79
2023/10/01 00:47:23;;;;;;;13.23;7.53;;;16.50;85.80;;;;;;4974480;28;20055;-79
2023/10/01 00:49:50;;;;;;;10.43;6.72;;;16.50;85.80;;;;;;4975309;28;20054;-79
2023/10/01 00:52:20;;;;;;;11.95;6.63;;;16.50;85.80;;;;;;4975777;28;20041;-80
2023/10/01 00:54:46;;;;;;;13.23;7.57;;;16.50;85.70;;;;;;4975709;28;20043;-80
2023/10/01 00:57:15;;;;;;;14.43;7.03;;;16.50;85.70;;;;;;4975403;28;20039;-79
2023/10/01 00:59:43;;;;;;;9.63;6.05;;;16.50;85.70;;;;;;4975188;28;20054;-79
2023/10/01 01:02:09;;;;;;;12.52;7.43;;;16.40;85.70;;;;;;4975562;28;20117;-79
2023/10/01 01:04:47;;;;;;;11.63;7.10;;;16.40;85.60;;;;;;4975305;28;20037;-79
2023/10/01 01:07:20;;;;;;;15.57;7.65;;;16.40;85.60;;;;;;4976415;28;20038;-79
2023/10/01 01:09:47;;;;;;;12.65;7.50;;;16.40;85.60;;;;;;4975175;28;20057;-79
2023/10/01 01:12:13;;;;;;;11.43;7.50;;;16.40;85.50;;;;;;4957865;28;20612;-79
2023/10/01 01:14:44;;;;;;;14.13;8.57;;;16.30;85.40;;;;;;4975180;28;20476;-79
2023/10/01 01:17:10;;;;;;;12.23;7.32;;;16.20;85.30;;;;;;4975329;28;20081;-79
2023/10/01 01:19:36;;;;;;;15.23;7.57;;;16.20;85.40;;;;;;4974986;28;20123;-79
2023/10/01 01:22:02;;;;;;;12.88;7.80;;;16.10;85.50;;;;;;4957460;28;20031;-79
2023/10/01 01:24:29;;;;;;;14.50;7.47;;;16.10;85.60;;;;;;4975051;28;20037;-77
2023/10/01 01:27:00;;;;;;;11.75;7.05;;;16.00;85.60;;;;;;4975088;28;20038;-77
2023/10/01 01:29:33;;;;;;;14.02;7.30;;;16.00;85.70;;;;;;4976325;28;20416;-78
2023/10/01 01:32:14;;;;;;;11.98;7.20;;;16.00;85.80;;;;;;4975841;28;20044;-77
2023/10/01 01:34:41;;;;;;;13.57;7.45;;;16.00;85.90;;;;;;4958399;28;20038;-77
2023/10/01 01:37:08;;;;;;;10.98;6.40;;;16.00;85.80;;;;;;4974797;28;20150;-77
2023/10/01 01:39:48;;;;;;;13.10;7.70;;;16.00;85.80;;;;;;4974743;28;20039;-77
2023/10/01 01:42:19;;;;;;;14.40;6.97;;;16.00;85.90;;;;;;4974963;28;20118;-77
2023/10/01 01:44:47;;;;;;;12.40;6.80;;;16.00;85.80;;;;;;4974953;28;20073;-77
2023/10/01 01:47:17;;;;;;;10.73;6.75;;;15.90;85.80;;;;;;4956744;28;20035;-77
2023/10/01 01:49:43;;;;;;;13.13;6.82;;;15.90;85.80;;;;;;4973181;28;20118;-77
2023/10/01 01:52:10;;;;;;;11.20;6.97;;;15.90;85.80;;;;;;4974576;28;20039;-77
2023/10/01 01:54:42;;;;;;;12.57;6.90;;;15.90;85.90;;;;;;4972993;28;20043;-77
2023/10/01 01:57:13;;;;;;;10.52;6.10;;;15.90;85.80;;;;;;4974195;28;20045;-77
2023/10/01 01:59:40;;;;;;;9.63;5.75;;;15.90;85.80;;;;;;4974266;28;20063;-77
2023/10/01 02:02:09;;;;;;;10.82;6.18;;;15.90;85.70;;;;;;4974345;28;20401;-78
2023/10/01 02:04:58;;;;;;;12.25;6.35;;;15.90;85.60;;;;;;4974512;28;20048;-78
2023/10/01 02:07:24;;;;;;;11.43;5.60;;;15.90;85.50;;;;;;4974341;28;20043;-78
2023/10/01 02:09:51;;;;;;;10.60;5.60;;;15.90;85.50;;;;;;4974480;28;20173;-78
2023/10/01 02:12:23;;;;;;;13.98;6.00;;;16.00;85.60;;;;;;4974403;28;20046;-78
2023/10/01 02:14:54;;;;;;;11.32;5.50;;;16.00;85.50;;;;;;4974428;28;20074;-78
2023/10/01 02:17:22;;;;;;;9.82;5.78;;;16.00;85.40;;;;;;4972728;28;20034;-78
2023/10/01 02:19:48;;;;;;;12.02;5.05;;;16.00;85.40;;;;;;4956933;28;20090;-78
2023/10/01 02:22:16;;;;;;;10.90;5.78;;;16.00;85.40;;;;;;4974603;28;20534;-78
2023/10/01 02:27:09;;;;;;;10.68;5.53;;;16.00;85.50;;;;;;4974190;28;20027;-77
2023/10/01 02:29:45;;;;;;;9.68;5.18;;;16.00;85.50;;;;;;4974659;28;20444;-77
2023/10/01 02:32:14;;;;;;;10.55;5.60;;;16.00;85.60;;;;;;4973885;28;20034;-77
2023/10/01 02:34:43;;;;;;;10.93;4.57;;;16.00;85.60;;;;;;4973946;28;20022;-77
2023/10/01 02:37:09;;;;;;;9.32;5.13;;;16.00;85.60;;;;;;4974136;28;20031;-77
2023/10/01 02:39:37;;;;;;;15.13;5.47;;;16.00;85.70;;;;;;4983374;28;20549;-77
2023/10/01 02:44:39;;;;;;;11.18;5.10;;;16.00;85.80;;;;;;4974224;28;20031;-77
2023/10/01 02:47:16;;;;;;;9.97;4.80;;;16.00;85.70;;;;;;4973916;28;20053;-77
2023/10/01 02:49:49;;;;;;;10.55;5.03;;;16.00;85.70;;;;;;4973996;28;20037;-77
2023/10/01 02:52:26;;;;;;;12.60;5.20;;;16.00;85.70;;;;;;4973311;28;20475;-77
2023/10/01 02:54:57;;;;;;;13.45;6.03;;;16.00;85.70;;;;;;4974044;28;20062;-78
2023/10/01 02:57:24;;;;;;;9.90;4.93;;;16.10;85.80;;;;;;4973705;28;20073;-77
2023/10/01 03:00:20;;;;;;;10.05;4.53;;;16.10;85.80;;;;;;4973991;28;20035;-77
2023/10/01 03:02:50;;;;;;;9.68;4.75;;;16.10;85.70;;;;;;4973713;28;20125;-77
2023/10/01 03:05:28;;;;;;;9.70;4.63;;;16.00;85.70;;;;;;4974345;28;20034;-78
2023/10/01 03:08:03;;;;;;;11.50;5.68;;;16.10;85.80;;;;;;4976538;28;20035;-77
2023/10/01 03:10:31;;;;;;;12.00;5.15;;;16.10;85.80;;;;;;4977237;28;20065;-77
2023/10/01 03:12:59;;;;;;;13.18;5.22;;;16.10;86.40;;;;;;4977506;28;20039;-77
2023/10/01 03:15:30;;;;;;;11.77;4.82;;;16.00;85.80;;;;;;4977104;28;20482;-77
2023/10/01 03:17:58;;;;;;;13.90;5.60;;;16.10;85.80;;;;;;4977489;28;20479;-77
2023/10/01 03:23:11;;;;;;;9.13;5.03;;;16.00;86.20;;;;;;4977452;28;20134;-77
2023/10/01 03:25:41;;;;;;;10.50;4.97;;;16.00;86.00;;;;;;4976002;28;20042;-78
2023/10/01 03:28:26;;;;;;;9.00;4.53;;;16.00;86.10;;;;;;4959418;28;20035;-77
2023/10/01 03:31:09;;;;;;;11.00;5.05;;;16.00;86.20;;;;;;4976976;28;20106;-77
2023/10/01 03:33:40;;;;;;;9.02;5.00;;;16.00;86.20;;;;;;4959699;28;20037;-77
2023/10/01 03:36:10;;;;;;;9.63;4.13;;;16.00;86.30;;;;;;4977114;28;20041;-77
2023/10/01 03:38:42;;;;;;;9.77;4.18;;;16.00;86.40;;;;;;4977132;28;20039;-78
2023/10/01 03:41:08;;;;;;;9.30;4.13;;;15.90;86.40;;;;;;4959932;28;20457;-77
2023/10/01 03:43:35;;;;;;;9.45;4.20;;;15.90;86.50;;;;;;4976939;28;20069;-77
2023/10/01 03:46:31;;;;;;;10.65;4.45;;;16.00;86.70;;;;;;4959635;28;20487;-77
2023/10/01 03:49:01;;;;;;;10.68;3.50;;;16.00;86.80;;;;;;4976590;28;20499;-77
2023/10/01 03:57:11;;;;;;;9.30;4.07;;;16.00;86.70;;;;;;4976783;28;20038;-78
2023/10/01 03:59:37;;;;;;;8.82;3.63;;;16.00;86.70;;;;;;4976862;28;20501;-78
2023/10/01 04:02:26;;;;;;;10.57;3.85;;;15.90;86.60;;;;;;4976571;28;20443;-78
2023/10/01 04:04:58;;;;;;;10.75;3.70;;;15.90;86.50;;;;;;4976389;28;20038;-78
2023/10/01 04:07:43;;;;;;;9.07;3.95;;;16.00;86.60;;;;;;4976318;28;20050;-78
2023/10/01 04:10:31;;;;;;;7.72;3.58;;;15.90;86.60;;;;;;4958970;28;20038;-78
2023/10/01 04:13:00;;;;;;;10.90;4.18;;;15.90;86.60;;;;;;4975579;28;21400;-78
2023/10/01 04:15:29;;;;;;;11.98;3.85;;;15.90;86.60;;;;;;4976220;28;20046;-78
2023/10/01 04:20:47;;;;;;;8.77;3.00;;;16.00;86.70;;;;;;4976248;28;20034;-78
2023/10/01 04:23:23;;;;;;;11.77;4.20;;;16.00;86.70;;;;;;4976111;28;20086;-78
2023/10/01 04:25:51;;;;;;;9.10;3.42;;;16.00;86.60;;;;;;4975912;28;20049;-78
2023/10/01 04:28:20;;;;;;;11.15;3.20;;;16.00;86.70;;;;;;4975848;28;20094;-78
2023/10/01 04:30:51;;;;;;;9.57;3.80;;;16.00;86.70;;;;;;4975796;28;20121;-79
2023/10/01 04:33:23;;;;;;;8.57;3.63;;;16.00;86.70;;;;;;4975907;28;20042;-78
2023/10/01 04:35:56;;;;;;;8.48;3.50;;;16.00;86.70;;;;;;4975984;28;20045;-78
2023/10/01 04:38:22;;;;;;;10.80;3.42;;;16.00;86.70;;;;;;4975847;28;20071;-78
2023/10/01 04:40:49;;;;;;;8.48;3.90;;;16.00;86.70;;;;;;4975434;28;20031;-78
2023/10/01 04:43:20;;;;;;;11.18;3.88;;;16.00;86.80;;;;;;4976042;28;20049;-79
2023/10/01 04:45:47;;;;;;;9.32;3.42;;;16.00;86.80;;;;;;4975771;28;20035;-78
2023/10/01 04:48:17;;;;;;;8.35;4.20;;;16.00;86.80;;;;;;4975257;28;20035;-78
2023/10/01 04:50:46;;;;;;;10.77;4.28;;;16.00;86.80;;;;;;4975839;28;20050;-78
2023/10/01 04:53:18;;;;;;;9.35;3.58;;;16.00;86.80;;;;;;4975719;28;20049;-78
2023/10/01 04:55:44;;;;;;;8.60;3.58;;;16.00;86.80;;;;;;4975457;28;20066;-78
2023/10/01 04:58:14;;;;;;;10.40;3.92;;;16.00;86.80;;;;;;4975687;28;20077;-78
2023/10/01 05:00:47;;;;;;;12.32;3.88;;;16.00;87.50;;;;;;4975169;28;20051;-78
2023/10/01 05:03:15;;;;;;;12.07;4.97;;;16.00;86.80;;;;;;4975201;28;20155;-77
2023/10/01 05:05:44;;;;;;;8.38;3.80;;;15.90;86.90;;;;;;4975231;28;20049;-78
2023/10/01 05:08:13;;;;;;;11.10;3.50;;;15.90;86.90;;;;;;4975707;28;20545;-78
2023/10/01 05:10:52;;;;;;;11.85;4.38;;;15.90;86.90;;;;;;4975907;28;20105;-78
2023/10/01 05:13:22;;;;;;;10.00;4.32;;;15.90;86.90;;;;;;4978434;28;20496;-78
2023/10/01 05:15:49;;;;;;;9.30;3.92;;;15.90;87.00;;;;;;4977229;28;20042;-78
2023/10/01 05:18:17;;;;;;;14.10;4.85;;;15.90;87.20;;;;;;4994194;28;20038;-78
2023/10/01 05:20:45;;;;;;;12.13;4.25;;;15.90;87.20;;;;;;4994611;28;20058;-78
2023/10/01 05:23:12;;;;;;;10.40;4.60;;;15.90;87.20;;;;;;4994709;28;20034;-77
2023/10/01 05:25:45;;;;;;;13.35;4.57;;;16.00;87.30;;;;;;4994212;28;20041;-78
2023/10/01 05:28:32;;;;;;;12.18;4.72;;;16.00;87.40;;;;;;4994339;28;20108;-78
2023/10/01 05:31:14;;;;;;;10.27;4.53;;;16.00;87.50;;;;;;4976014;28;20497;-78
2023/10/01 05:33:46;;;;;;;9.45;3.97;;;15.90;87.50;;;;;;4977127;28;20027;-78
2023/10/01 05:36:13;;;;;;;10.10;3.70;;;15.90;87.50;;;;;;4994509;28;20504;-78
2023/10/01 05:38:39;;;;;;;11.68;4.30;;;16.00;87.70;;;;;;4994050;28;20100;-78
2023/10/01 05:41:09;;;;;;;8.75;3.63;;;16.00;87.70;;;;;;4993979;28;20121;-78
2023/10/01 05:43:38;;;;;;;8.82;3.90;;;16.00;87.80;;;;;;4994386;28;20376;-78
2023/10/01 05:46:08;;;;;;;11.55;3.78;;;16.00;87.90;;;;;;4994305;28;20479;-78
2023/10/01 05:48:35;;;;;;;10.07;4.25;;;16.00;87.90;;;;;;4992002;28;20030;-78
2023/10/01 05:51:04;;;;;;;12.48;4.85;;;16.10;88.00;;;;;;4985222;28;20038;-77
2023/10/01 05:53:30;;;;;;;10.23;4.63;;;16.10;88.00;;;;;;4973177;28;20054;-78
2023/10/01 05:56:07;;;;;;;9.25;4.03;;;16.10;88.00;;;;;;4974663;28;20040;-78
2023/10/01 05:58:36;;;;;;;12.73;4.70;;;16.10;88.10;;;;;;4974456;28;20325;-78
2023/10/01 06:01:14;;;;;;;9.07;4.45;;;16.10;88.10;;;;;;4974582;28;20046;-78
2023/10/01 06:03:48;;;;;;;10.60;4.22;;;16.10;88.20;;;;;;4974425;28;20041;-77
2023/10/01 06:06:23;;;;;;;11.35;4.10;;;16.20;88.30;;;;;;4974360;28;20038;-78
2023/10/01 06:08:50;;;;;;;10.48;4.47;;;16.20;88.30;;;;;;4974273;28;20042;-78
2023/10/01 06:11:38;;;;;;;11.35;4.57;;;16.20;88.30;;;;;;4974410;28;20090;-77
2023/10/01 06:14:07;;;;;;;10.13;4.40;;;16.20;88.40;;;;;;4974220;28;20081;-76
2023/10/01 06:16:37;;;;;;;10.35;4.50;;;16.20;88.40;;;;;;4972700;28;20066;-77
2023/10/01 06:19:07;;;;;;;11.18;4.53;;;16.20;88.50;;;;;;4986728;28;20034;-77
2023/10/01 06:21:33;;;;;;;12.90;4.53;;;16.20;88.40;;;;;;4993533;28;20038;-77
2023/10/01 06:24:04;;;;;;;10.43;4.35;;;16.20;88.40;;;;;;4993327;28;20030;-77
2023/10/01 06:26:37;;;;;;;11.43;4.55;;;16.20;88.40;;;;;;4987485;28;20031;-76
2023/10/01 06:29:13;;;;;;;12.40;4.68;;;16.20;88.40;;;;;;4985861;28;20542;-77
2023/10/01 06:34:26;;;;;;;12.10;4.30;;;16.20;88.40;;;;;;4978887;28;20566;-79
2023/10/01 06:36:58;;;;;;;12.30;4.82;;;16.30;88.40;;;;;;4976800;28;20066;-79
2023/10/01 06:39:32;;;;;;;14.00;5.53;;;16.30;88.20;;;;;;4987806;28;20039;-78
2023/10/01 06:42:20;;;;;;;11.80;4.78;;;16.30;88.30;;;;;;4992175;28;20118;-79
2023/10/01 06:44:50;;;;;;;11.02;4.65;;;16.30;88.40;;;;;;5001916;28;20134;-79
2023/10/01 06:47:23;;;;;;;13.35;4.82;;;16.30;88.30;;;;;;4983350;28;20052;-79
2023/10/01 06:49:57;;;;;;;10.57;5.03;;;16.40;88.30;;;;;;4997158;28;20034;-78
2023/10/01 06:52:27;;;;;;;14.82;4.63;;;16.40;88.30;;;;;;4996829;28;20117;-79
2023/10/01 06:54:55;;;;;;;12.95;4.70;;;16.40;88.80;;;;;;4997233;28;20474;-79
2023/10/01 06:57:22;;;;;;;10.15;4.45;;;16.40;88.20;;;;;;4997064;28;20126;-79
2023/10/01 06:59:48;;;;;;;12.75;4.75;;;16.40;88.30;;;;;;4986750;28;20043;-79
2023/10/01 07:02:14;;;;;;;11.85;4.70;;;16.50;88.30;;;;;;4987011;28;20885;-79
2023/10/01 07:04:41;;;;;;;11.32;5.32;;;16.50;88.20;;;;;;4985234;28;20062;-79
2023/10/01 07:07:20;;;;;;;12.32;5.32;;;16.60;88.10;;;;;;4959980;28;20066;-79
2023/10/01 07:09:46;;;;;;;12.00;4.47;;;16.50;87.90;;;;;;4979700;28;20030;-80
2023/10/01 07:12:13;;;;;;;13.50;4.80;;;16.60;87.90;;;;;;4979658;28;20102;-80
2023/10/01 07:14:43;;;;;;;12.15;5.30;;;16.60;87.70;;;;;;4961554;28;20038;-80
2023/10/01 07:17:13;;;;;;;12.82;5.13;;;16.50;87.50;;;;;;4979249;28;20471;-80
2023/10/01 07:19:40;;;;;;;11.52;4.93;;;16.50;87.50;;;;;;4978860;28;20039;-80
2023/10/01 07:22:06;;;;;;;12.32;5.20;;;16.40;87.30;;;;;;4978255;28;20031;-79
2023/10/01 07:24:35;;;;;;;13.98;5.22;;;16.50;87.50;;;;;;4979626;28;20039;-79
2023/10/01 07:27:06;;;;;;;13.48;5.35;;;16.40;87.50;;;;;;4978134;28;20046;-78
2023/10/01 07:29:36;;;;;;;12.93;5.43;;;16.40;87.50;;;;;;4977211;28;20066;-79
2023/10/01 07:32:12;;;;;;;11.65;4.55;;;16.40;87.60;;;;;;4977007;28;20030;-79
2023/10/01 07:34:45;;;;;;;13.23;5.05;;;16.40;87.70;;;;;;4976768;28;20121;-79
2023/10/01 07:37:23;;;;;;;15.13;5.70;;;16.40;87.70;;;;;;4977360;28;20113;-79
2023/10/01 07:39:52;;;;;;;12.93;5.75;;;16.50;87.90;;;;;;4976912;28;20042;-78
2023/10/01 07:42:17;;;;;;;14.25;5.50;;;16.50;88.00;;;;;;4976849;28;20050;-79
2023/10/01 07:44:45;;;;;;;14.05;6.05;;;16.50;88.10;;;;;;4984746;28;20027;-79
2023/10/01 07:47:28;;;;;;;15.23;5.93;;;16.50;88.10;;;;;;4996664;28;20081;-77
2023/10/01 07:49:56;;;;;;;12.93;5.60;;;16.50;88.10;;;;;;4995546;28;20434;-77
2023/10/01 07:52:23;;;;;;;13.13;5.65;;;16.60;88.10;;;;;;4995945;28;20450;-77
2023/10/01 07:54:49;;;;;;;14.73;5.15;;;16.60;88.10;;;;;;4988758;28;20027;-77
2023/10/01 07:57:27;;;;;;;13.63;5.95;;;16.60;88.10;;;;;;4982186;28;20039;-78
2023/10/01 08:00:00;;;;;;;15.70;5.32;;;16.70;88.30;;;;;;4976429;28;20146;-77
2023/10/01 08:02:28;;;;;;;15.02;5.57;;;16.70;88.30;;;;;;4976643;28;20023;-77
2023/10/01 08:04:57;;;;;;;12.65;5.10;;;16.70;88.30;;;;;;4976143;28;20039;-79
2023/10/01 08:07:30;;;;;;;13.68;5.75;;;16.70;88.40;;;;;;4976301;28;20113;-79
2023/10/01 08:10:03;;;;;;;12.48;5.45;;;16.80;88.50;;;;;;4976186;28;20368;-79
2023/10/01 08:12:33;;;;;;;13.60;5.13;;;16.80;88.60;;;;;;4976246;28;20086;-79
2023/10/01 08:17:47;;;;;;;13.00;5.60;;;16.90;88.70;;;;;;4976346;28;20458;-80
2023/10/01 08:20:21;;;;;;;14.43;6.53;;;16.90;88.70;;;;;;4975929;28;20066;-80
2023/10/01 08:25:51;;;;;;;11.52;5.03;;;17.00;88.70;;;;;;4977026;28;19913;-80
2023/10/01 08:30:49;;;;;;;14.52;6.25;;;17.10;88.70;;;;;;4976282;28;20093;-79
2023/10/01 08:33:32;;;;;;;11.95;6.10;;;17.20;88.80;;;;;;4975723;28;20031;-80
2023/10/01 08:36:12;;;;;;;13.02;5.55;;;17.20;88.80;;;;;;4975848;28;20031;-79
2023/10/01 08:38:39;;;;;;;14.80;6.65;;;17.20;88.80;;;;;;4976248;28;20031;-79
2023/10/01 08:41:06;;;;;;;16.73;6.15;;;17.30;88.80;;;;;;4975590;28;20042;-79
2023/10/01 08:43:36;;;;;;;14.23;6.30;;;17.40;88.70;;;;;;4976558;28;20067;-80
2023/10/01 08:46:17;;;;;;;13.40;5.70;;;17.40;88.70;;;;;;4975873;28;20045;-79
2023/10/01 08:48:44;;;;;;;15.05;6.10;;;17.50;88.80;;;;;;4975122;28;20031;-79
2023/10/01 08:51:16;;;;;;;13.95;6.22;;;17.60;88.90;;;;;;4975450;28;20042;-79
2023/10/01 08:53:43;;;;;;;17.23;7.45;;;17.60;88.80;;;;;;4975630;28;20402;-79
2023/10/01 08:56:32;;;;;;;15.70;6.47;;;17.60;88.80;;;;;;4975665;28;20491;-80
2023/10/01 08:58:59;;;;;;;16.90;6.57;;;17.70;89.40;;;;;;4975275;28;20050;-80
2023/10/01 09:01:29;;;;;;;15.48;6.95;;;17.80;88.80;;;;;;4975641;28;20039;-83
2023/10/01 09:04:29;;;;;;;17.85;7.10;;;17.90;88.70;;;;;;4977566;28;20390;-83
2023/10/01 09:06:59;;;;;;;13.48;6.07;;;18.00;88.80;;;;;;4978449;28;20487;-85
2023/10/01 09:09:26;;;;;;;16.13;6.75;;;18.00;88.80;;;;;;4976388;28;20055;-83
2023/10/01 09:11:58;;;;;;;17.40;6.47;;;18.10;88.80;;;;;;4959935;28;20031;-82
2023/10/01 09:14:38;;;;;;;13.60;6.05;;;18.20;88.60;;;;;;4976089;28;20037;-85
2023/10/01 09:17:26;;;;;;;16.05;6.78;;;18.30;88.60;;;;;;4975247;28;20491;-85
2023/10/01 09:20:09;;;;;;;14.68;6.65;;;18.40;88.40;;;;;;4917051;29;20040;-83
2023/10/01 09:23:08;;;;;;;13.35;6.40;;;18.40;88.40;;;;;;4915865;29;20047;-83
2023/10/01 09:26:08;;;;;;;13.13;5.18;;;18.50;88.20;;;;;;4913886;29;20078;-83
2023/10/01 09:28:37;;;;;;;14.80;6.77;;;18.50;88.10;;;;;;4915388;29;20044;-82
2023/10/01 09:33:51;;;;;;;13.10;5.53;;;18.60;87.80;;;;;;4887420;29;20025;-84
2023/10/01 09:36:37;;;;;;;18.20;8.20;;;18.80;87.80;;;;;;4916178;29;20040;-83
2023/10/01 09:39:06;;;;;;;15.93;6.35;;;18.80;87.70;;;;;;4916223;29;20036;-85
2023/10/01 09:41:40;;;;;;;14.13;6.70;;;18.90;87.60;;;;;;4915224;29;20512;-79
2023/10/01 09:44:08;;;;;;;15.07;5.95;;;19.00;87.50;;;;;;4915286;29;20131;-78
2023/10/01 09:46:37;;;;;;;15.13;6.70;;;19.10;87.50;;;;;;4914700;29;20044;-80
2023/10/01 09:49:05;;;;;;;18.63;6.43;;;19.20;87.40;;;;;;4914520;29;20044;-79
2023/10/01 09:51:41;;;;;;;14.23;5.88;;;19.30;87.30;;;;;;4945528;28;20042;-80
2023/10/01 09:54:13;;;;;;;13.35;6.28;;;19.50;87.20;;;;;;4957311;28;20200;-81
2023/10/01 09:59:11;;;;;;;14.27;7.10;;;19.90;86.40;;;;;;4974449;28;20082;-80
2023/10/01 10:01:38;;;;;;;12.55;5.93;;;20.10;86.10;;;;;;4974186;28;20395;-80
2023/10/01 10:04:06;;;;;;;14.38;6.22;;;20.30;85.90;;;;;;4974464;28;20031;-80
2023/10/01 10:06:33;;;;;;;11.63;5.65;;;20.40;85.60;;;;;;4957155;28;20031;-79
2023/10/01 10:09:06;;;;;;;13.85;6.60;;;20.60;85.50;;;;;;4974200;28;20053;-80
2023/10/01 10:11:43;;;;;;;14.95;5.72;;;20.80;85.10;;;;;;4974193;28;20027;-80
2023/10/01 10:14:25;;;;;;;13.40;6.65;;;21.00;84.60;;;;;;4976131;28;20042;-81
2023/10/01 10:17:18;;;;;;;15.60;6.70;;;21.30;83.90;;;;;;4956820;28;20126;-79
2023/10/01 10:20:15;;;;;;;11.57;5.28;;;21.50;83.00;;;;;;4974163;28;20086;-79
2023/10/01 10:23:12;;;;;;;11.50;5.68;;;21.70;82.60;;;;;;4974175;28;20065;-78
2023/10/01 10:25:38;;;;;;;11.27;5.70;;;22.00;81.60;;;;;;4974117;28;20121;-78
2023/10/01 10:28:06;;;;;;;11.70;5.43;;;22.20;81.30;;;;;;4973715;28;20083;-77
2023/10/01 10:30:32;;;;;;;14.90;6.15;;;22.40;80.70;;;;;;4956308;28;20506;-77
2023/10/01 10:33:16;;;;;;;12.85;5.72;;;22.70;80.30;;;;;;4974203;28;20039;-78
2023/10/01 10:35:49;;;;;;;15.23;6.78;;;22.90;79.40;;;;;;4973591;28;20073;-76
2023/10/01 10:38:51;;;;;;;12.60;6.63;;;23.10;79.10;;;;;;4974151;28;20049;-79
2023/10/01 10:41:19;;;;;;;15.23;6.47;;;23.10;78.00;;;;;;4974155;28;20046;-75
2023/10/01 10:44:15;;;;;;;11.55;5.70;;;23.20;77.60;;;;;;4973939;28;20027;-78
2023/10/01 10:47:03;;;;;;;13.57;6.45;;;23.30;76.60;;;;;;4973754;28;20039;-79
2023/10/01 10:49:51;;;;;;;12.60;5.90;;;23.30;76.20;;;;;;4976606;28;20094;-77
2023/10/01 10:52:31;;;;;;;15.32;7.05;;;23.40;76.10;;;;;;4973476;28;20039;-77
2023/10/01 10:55:16;;;;;;;17.05;6.25;;;23.50;75.60;;;;;;4973477;28;20090;-75
2023/10/01 10:57:48;;;;;;;13.98;6.43;;;23.60;75.30;;;;;;4973783;28;20074;-76
2023/10/01 11:00:24;;;;;;;12.98;5.90;;;23.70;74.60;;;;;;4973636;28;20039;-76
2023/10/01 11:02:56;;;;;;;13.32;6.22;;;23.80;74.20;;;;;;4973620;28;20486;-76
2023/10/01 11:05:28;;;;;;;11.48;5.93;;;23.90;73.90;;;;;;4973748;28;20035;-76
2023/10/01 11:07:58;;;;;;;14.48;6.43;;;24.00;73.80;;;;;;4973702;28;20030;-76
2023/10/01 11:10:27;;;;;;;15.00;6.88;;;24.20;73.40;;;;;;4956405;28;20105;-75
2023/10/01 11:12:54;;;;;;;15.18;7.18;;;24.40;72.70;;;;;;4973157;28;20062;-76
2023/10/01 11:15:23;;;;;;;15.27;7.13;;;24.70;72.30;;;;;;4973676;28;20043;-76
2023/10/01 11:18:01;;;;;;;11.70;6.07;;;24.90;72.00;;;;;;4973590;28;20038;-80
2023/10/01 11:20:33;;;;;;;12.20;6.28;;;25.20;71.50;;;;;;4956085;28;20031;-79
2023/10/01 11:22:59;;;;;;;13.82;6.60;;;25.50;71.10;;;;;;4973424;28;20146;-80
2023/10/01 11:25:25;;;;;;;14.45;6.68;;;25.80;70.60;;;;;;4956214;28;20471;-82
2023/10/01 11:28:05;;;;;;;14.57;6.97;;;26.10;69.70;;;;;;4974264;28;20089;-81
2023/10/01 11:30:42;;;;;;;12.60;6.18;;;26.40;68.80;;;;;;4977112;28;20130;-81
2023/10/01 11:36:07;;;;;;;13.15;5.85;;;26.90;67.40;;;;;;4978011;28;20466;-81
2023/10/01 11:38:39;;;;;;;12.73;6.35;;;27.10;66.70;;;;;;4976113;28;20042;-80
2023/10/01 11:41:06;;;;;;;11.75;5.43;;;27.40;66.00;;;;;;4959254;28;20094;-79
2023/10/01 11:43:58;;;;;;;14.05;6.30;;;27.50;65.80;;;;;;4976801;28;20027;-81
2023/10/01 11:47:31;;;;;;;11.65;6.00;;;27.70;65.20;;;;;;4976576;28;20094;-81
2023/10/01 11:49:15;;;;;;;13.23;5.97;;;28.00;64.70;;;;;;4963041;28;20050;-81
2023/10/01 11:54:15;;;;;;;12.25;5.72;;;28.30;63.30;;;;;;4990276;28;20462;-81
2023/10/01 11:57:04;;;;;;;12.25;5.90;;;28.50;62.80;;;;;;4979776;28;20491;-77
2023/10/01 11:59:31;;;;;;;14.25;6.38;;;28.60;61.80;;;;;;4978858;28;20542;-77
2023/10/01 12:02:15;;;;;;;12.52;5.70;;;28.70;61.40;;;;;;4976447;28;20031;-77
2023/10/01 12:04:44;;;;;;;12.50;6.38;;;28.70;61.20;;;;;;4959184;28;20027;-78
2023/10/01 12:07:18;;;;;;;11.88;5.85;;;28.80;61.00;;;;;;4976448;28;20042;-77
2023/10/01 12:09:52;;;;;;;13.90;6.05;;;28.90;60.10;;;;;;4976179;28;20486;-78
2023/10/01 12:12:25;;;;;;;12.60;5.93;;;29.00;60.00;;;;;;4958821;28;20138;-82
2023/10/01 12:17:47;;;;;;;12.23;5.78;;;29.30;59.80;;;;;;4946614;28;20431;-82
2023/10/01 12:20:22;;;;;;;9.48;4.93;;;29.40;59.30;;;;;;4958730;28;20482;-82
2023/10/01 12:23:11;;;;;;;10.90;5.15;;;29.60;59.20;;;;;;4976042;28;20117;-81
2023/10/01 12:25:53;;;;;;;10.38;5.13;;;29.60;58.50;;;;;;4974124;28;20042;-82
2023/10/01 12:28:28;;;;;;;12.73;6.00;;;29.70;58.50;;;;;;4976043;28;20031;-80
2023/10/01 12:30:58;;;;;;;11.20;5.85;;;29.80;57.70;;;;;;4975702;28;20035;-83
2023/10/01 12:33:42;;;;;;;10.65;5.57;;;29.90;57.50;;;;;;4976084;28;20027;-82
2023/10/01 12:36:31;;;;;;;10.88;5.22;;;30.10;57.30;;;;;;4976071;28;20057;-82
2023/10/01 12:44:34;;;;;;;9.77;5.40;;;30.40;56.30;;;;;;4974484;28;20113;-84
2023/10/01 12:47:07;;;;;;;10.75;5.20;;;30.60;56.30;;;;;;4975856;28;20038;-82
2023/10/01 12:49:33;;;;;;;;;;;30.80;56.30;;;;;;4975873;28;20038;-81
2023/10/01 12:52:14;;;;;;;10.05;4.93;;;31.00;56.20;;;;;;4975931;28;20050;-83
2023/10/01 12:54:41;;;;;;;9.65;5.13;;;31.10;55.90;;;;;;4975687;28;20170;-83
2023/10/01 12:57:18;;;;;;;12.20;5.43;;;31.20;55.90;;;;;;4958259;28;20034;-83
2023/10/01 12:59:46;;;;;;;10.77;5.45;;;31.40;55.90;;;;;;4975533;28;20065;-82
2023/10/01 13:07:40;;;;;;;9.77;4.65;;;31.90;55.00;;;;;;4975470;28;20061;-83
2023/10/01 13:10:06;;;;;;;11.82;4.88;;;32.00;54.70;;;;;;4975372;28;20034;-82
2023/10/01 13:15:29;;;;;;;12.13;5.53;;;32.10;53.40;;;;;;4975565;28;20118;-81
2023/10/01 13:18:04;;;;;;;11.57;5.32;;;32.20;53.00;;;;;;4975158;28;20094;-81
2023/10/01 13:20:46;;;;;;;9.43;5.05;;;32.20;52.50;;;;;;4975132;28;20102;-81
2023/10/01 13:23:12;;;;;;;9.90;5.35;;;32.10;52.50;;;;;;4974678;28;20042;-79
2023/10/01 13:25:46;;;;;;;10.85;5.95;;;32.10;52.80;;;;;;4957615;28;20042;-81
2023/10/01 13:28:19;;;;;;;10.15;5.40;;;32.30;52.80;;;;;;4974865;28;20046;-82
2023/10/01 13:33:29;;;;;;;12.30;5.97;;;32.50;52.50;;;;;;4975012;28;20533;-79
2023/10/01 13:35:58;;;;;;;9.85;4.47;;;32.50;52.20;;;;;;4974856;28;20027;-80
2023/10/01 14:11:09;;;;;;;9.25;5.22;;;32.00;51.90;;;;;;4994493;28;20045;-82
2023/10/01 14:13:35;;;;;;;10.98;5.45;;;32.10;51.90;;;;;;4993858;28;20092;-82
2023/10/01 14:16:11;;;;;;;9.70;5.72;;;32.30;51.80;;;;;;4976022;28;20034;-82
2023/10/01 14:18:40;;;;;;;10.38;5.15;;;32.50;51.20;;;;;;4993710;28;20030;-82
2023/10/01 14:21:12;;;;;;;11.07;6.15;;;32.60;50.90;;;;;;4993485;28;20504;-83
2023/10/01 14:23:45;;;;;;;10.88;5.97;;;32.80;50.60;;;;;;4993716;28;20050;-82
2023/10/01 14:26:13;;;;;;;11.57;5.80;;;32.90;50.60;;;;;;4993677;28;20382;-81
2023/10/01 14:28:39;;;;;;;11.15;6.25;;;33.10;50.60;;;;;;4993889;28;20046;-80
2023/10/01 14:31:10;;;;;;;11.45;6.25;;;33.00;50.20;;;;;;4993731;28;20481;-82
2023/10/01 14:33:39;;;;;;;11.50;6.38;;;33.00;50.20;;;;;;4993825;28;20146;-82